Canarana, Brazil
Current Conditions -  °F | °C
As of 7:00 PM on Wednesday 22 Oct 2014 (Local Time) from SBBW Reporting Station
Few Clouds Few Clouds  
Wind Chill: 88°   Ceiling: Unl
Heat Index: 90°   Visibility: 6mi
Dew Point: 66°   Wind: 6mph
Humidity: 49%   Direction: 30°NNE
Pressure: 29.85"   Gusts: NA
Location:  13.55°S, 52.27°W
Report Text: SBBW 222200Z 03005KT 9999 FEW025 31/19 Q1011
Loading
Personal Weather Stations






























Interactive Weather Map
Tropical Storm Tracking
New forecast layout! Learn more

10-Day Weather Forecast

Advertisements
Track Severe Weather on mobile